Aérodrome :
LOGIN :

S'inscrire | Disclaimer

   EN    FR    IT 

 










Légende :    VFR   VFR Marginal   IFR   IFR Intensif   IFR Très Intensif
Visi : 
Plafond : 
>= 8 km
>= 3000ft
5 à 8 km
1000 à 3000 ft
1500m à 5 km
500 à 1000 ft
800 à 1500m
200 à 500 ft
< 800m
< 200 ft
Symboles :   Orages  Brouillard  Fortes neiges  Fortes précipitations  Vent > 20 kt
SIGMETs :   Divers  Orages  Givrage  Turbulence  Onde Orograph.  Cendres Volcan.






- Altitude de l'aérodrome : 7 ft
- Code IATA : VCE


LIPZ - Marco Polo Int. Venezia

DERNIER METAR :
  • 060050Z 32005KT CAVOK 19/17 Q1015 NOSIG

METARs EXPIRÉS :
  • 060020Z 34005KT CAVOK 20/16 Q1015 NOSIG
  • 052350Z 36004KT 320V020 CAVOK 20/16 Q1015 NOSIG
  • 052320Z 03005KT 340V060 CAVOK 21/16 Q1015 NOSIG
  • 052250Z 02006KT CAVOK 21/15 Q1015 NOSIG

TAF TAF LIPZ
Valide du 06 à 00h jusqu'au 07 à 06h UTC


052300Z 0600/0706 06007KT CAVOK
BECMG 0619/0621 04015KT
PROB40
TEMPO 0621/0703 TSRA



MET'MAP, la Météo Aéronautique d'un coup d'oeil ! - Copyright ORBIFLY Décembre 2007 - Disclaimer

ORBIFLY MET'MAP TEAM :

Programmation & Développement : Alexandra Zaïnal
Sur une idée originale de : Baudouin d'Aumeries
Assistance à la programmation : Marc-Olivier Méhu
Soutien technique & logistique : Manuel Goepfert

Contact : metmap@orbifly.com




SOURCES & CREDITS :

   NOAA